Ever Diamond — 3FQS8 — position and weather

sailwx.info

Track history (hours):
 
Tides and Currents Weather Stations Pressure Air Temp Water Temp Dewpoint Dewpoint Depression Visibility Wind Speed Wind Dir Waves Ship Positions

Ever Diamond

Last reported at 2016-Jul-25 15:31 UTC. Time now 2016-Jul-29 15:57 UTC.
Position N 02°34' E 101°29'.

Type: Ship (hazmat cat D). MMSI: 354893000.

Date/timePositionNaut miles runAvg speedWind from/ knotsBaromVisibWave heightAir tempDewpointWater temp
2016-Jul-25 15:31N 02°34' E 101°29'2216.8
2016-Jul-25 14:12N 02°21' E 101°48'4717.8
2016-Jul-25 11:33N 01°52' E 102°25'2319.0
2016-Jul-25 10:22N 01°42' E 102°45'5417.0
2016-Jul-25 07:10N 01°13' E 103°31'3 0.2
2016-Jul-24 11:28N 01°11' E 103°34'3 2.8
2016-Jul-24 10:33N 01°12' E 103°36'5 5.1
2016-Jul-24 09:33N 01°10' E 103°41'1110.8
2016-Jul-24 08:30N 01°12' E 103°52'1314.0
2016-Jul-24 07:33N 01°16' E 104°05'  
2016-Jul-20 20:31N 22°14' E 114°08'1311.0
2016-Jul-20 19:18N 22°21' E 113°55'6 7.8
2016-Jul-20 18:33N 22°27' E 113°54'0 0.2
2016-Jul-20 17:28N 22°27' E 113°53'0 0.1
2016-Jul-20 16:22N 22°27' E 113°53'0 0.1
2016-Jul-20 15:33N 22°27' E 113°53'0 0.1
2016-Jul-20 14:33N 22°27' E 113°53'0 0.1
2016-Jul-20 13:33N 22°27' E 113°53'0 0.1
2016-Jul-20 12:33N 22°27' E 113°53'0 0.1
2016-Jul-20 11:33N 22°27' E 113°53'0 0.0
2016-Jul-20 10:33N 22°27' E 113°53'0 0.0
2016-Jul-20 09:33N 22°27' E 113°53'0 0.1
2016-Jul-20 08:33N 22°27' E 113°54'0 0.1
2016-Jul-20 07:33N 22°27' E 113°53'0 0.1
2016-Jul-20 06:33N 22°27' E 113°53'4 3.9
2016-Jul-20 05:33N 22°23' E 113°54'8 7.3
2016-Jul-20 04:28N 22°21' E 114°02'24814.4
2016-Jul-19 11:14N 23°50' E 118°14'1116.9
2016-Jul-19 10:33N 23°60' E 118°19'1716.8
2016-Jul-19 09:33N 24°16' E 118°15'1414.4
2016-Jul-19 08:33N 24°26' E 118°03'5 4.8
2016-Jul-19 07:33N 24°31' E 118°05'0 0.0
2016-Jul-19 04:33N 24°31' E 118°05'0 0.1
2016-Jul-19 03:33N 24°31' E 118°05'0 0.1
2016-Jul-19 02:33N 24°31' E 118°05'0 0.0
2016-Jul-19 01:33N 24°31' E 118°05'0 0.0
2016-Jul-19 00:33N 24°31' E 118°05'3 3.1
2016-Jul-18 23:33N 24°28' E 118°03'1313.3
2016-Jul-18 22:34N 24°18' E 118°13'1211.3
2016-Jul-18 21:31N 24°18' E 118°26'1 1.5
2016-Jul-18 20:30N 24°17' E 118°25'1 0.9
2016-Jul-18 19:33N 24°16' E 118°24'0 0.2
2016-Jul-18 18:33N 24°16' E 118°24'0 0.3
2016-Jul-18 17:32N 24°16' E 118°24'1212.4
2016-Jul-18 16:32N 24°16' E 118°37'1616.7
2016-Jul-18 15:33N 24°20' E 118°55'  
2016-Jul-16 06:31N 29°30' E 122°37'2814.5
2016-Jul-16 04:34N 29°49' E 122°13'9 9.3
2016-Jul-16 03:33N 29°53' E 122°03'0 0.3
2016-Jul-16 02:33N 29°53' E 122°03'0 0.1
2016-Jul-16 01:33N 29°53' E 122°03'0 0.1
2016-Jul-16 00:31N 29°53' E 122°03'0 0.1
2016-Jul-15 23:33N 29°53' E 122°03'0 0.1
2016-Jul-15 22:33N 29°53' E 122°03'0 0.1
2016-Jul-15 21:32N 29°53' E 122°03'0 0.1
2016-Jul-15 20:33N 29°53' E 122°03'0 0.1
2016-Jul-15 19:33N 29°53' E 122°03'0 0.1
2016-Jul-15 18:33N 29°53' E 122°03'1 1.1
2016-Jul-15 17:33N 29°54' E 122°04'9 9.2
2016-Jul-15 16:33N 29°50' E 122°13'9 8.5
2016-Jul-15 15:32N 29°44' E 122°21'  
Track history (hours):
 
Tides and Currents Weather Stations Pressure Air Temp Water Temp Dewpoint Dewpoint Depression Visibility Wind Speed Wind Dir Waves Ship Positions

Ever Diamond

Last reported at 2016-Jul-25 15:31 UTC. Time now 2016-Jul-29 15:57 UTC.
Position N 02°34' E 101°29'.

Type: Ship (hazmat cat D). MMSI: 354893000.

Date/timePositionNaut miles runAvg speedWind from/ knotsBaromVisibWave heightAir tempDewpointWater temp
2016-Jul-25 15:31N 02°34' E 101°29'2216.8
2016-Jul-25 14:12N 02°21' E 101°48'4717.8
2016-Jul-25 11:33N 01°52' E 102°25'2319.0
2016-Jul-25 10:22N 01°42' E 102°45'5417.0
2016-Jul-25 07:10N 01°13' E 103°31'3 0.2
2016-Jul-24 11:28N 01°11' E 103°34'3 2.8
2016-Jul-24 10:33N 01°12' E 103°36'5 5.1
2016-Jul-24 09:33N 01°10' E 103°41'1110.8
2016-Jul-24 08:30N 01°12' E 103°52'1314.0
2016-Jul-24 07:33N 01°16' E 104°05'  
2016-Jul-20 20:31N 22°14' E 114°08'1311.0
2016-Jul-20 19:18N 22°21' E 113°55'6 7.8
2016-Jul-20 18:33N 22°27' E 113°54'0 0.2
2016-Jul-20 17:28N 22°27' E 113°53'0 0.1
2016-Jul-20 16:22N 22°27' E 113°53'0 0.1
2016-Jul-20 15:33N 22°27' E 113°53'0 0.1
2016-Jul-20 14:33N 22°27' E 113°53'0 0.1
2016-Jul-20 13:33N 22°27' E 113°53'0 0.1
2016-Jul-20 12:33N 22°27' E 113°53'0 0.1
2016-Jul-20 11:33N 22°27' E 113°53'0 0.0
2016-Jul-20 10:33N 22°27' E 113°53'0 0.0
2016-Jul-20 09:33N 22°27' E 113°53'0 0.1
2016-Jul-20 08:33N 22°27' E 113°54'0 0.1
2016-Jul-20 07:33N 22°27' E 113°53'0 0.1
2016-Jul-20 06:33N 22°27' E 113°53'4 3.9
2016-Jul-20 05:33N 22°23' E 113°54'8 7.3
2016-Jul-20 04:28N 22°21' E 114°02'24814.4
2016-Jul-19 11:14N 23°50' E 118°14'1116.9
2016-Jul-19 10:33N 23°60' E 118°19'1716.8
2016-Jul-19 09:33N 24°16' E 118°15'1414.4
2016-Jul-19 08:33N 24°26' E 118°03'5 4.8
2016-Jul-19 07:33N 24°31' E 118°05'0 0.0
2016-Jul-19 04:33N 24°31' E 118°05'0 0.1
2016-Jul-19 03:33N 24°31' E 118°05'0 0.1
2016-Jul-19 02:33N 24°31' E 118°05'0 0.0
2016-Jul-19 01:33N 24°31' E 118°05'0 0.0
2016-Jul-19 00:33N 24°31' E 118°05'3 3.1
2016-Jul-18 23:33N 24°28' E 118°03'1313.3
2016-Jul-18 22:34N 24°18' E 118°13'1211.3
2016-Jul-18 21:31N 24°18' E 118°26'1 1.5
2016-Jul-18 20:30N 24°17' E 118°25'1 0.9
2016-Jul-18 19:33N 24°16' E 118°24'0 0.2
2016-Jul-18 18:33N 24°16' E 118°24'0 0.3
2016-Jul-18 17:32N 24°16' E 118°24'1212.4
2016-Jul-18 16:32N 24°16' E 118°37'1616.7
2016-Jul-18 15:33N 24°20' E 118°55'  
2016-Jul-16 06:31N 29°30' E 122°37'2814.5
2016-Jul-16 04:34N 29°49' E 122°13'9 9.3
2016-Jul-16 03:33N 29°53' E 122°03'0 0.3
2016-Jul-16 02:33N 29°53' E 122°03'0 0.1
2016-Jul-16 01:33N 29°53' E 122°03'0 0.1
2016-Jul-16 00:31N 29°53' E 122°03'0 0.1
2016-Jul-15 23:33N 29°53' E 122°03'0 0.1
2016-Jul-15 22:33N 29°53' E 122°03'0 0.1
2016-Jul-15 21:32N 29°53' E 122°03'0 0.1
2016-Jul-15 20:33N 29°53' E 122°03'0 0.1
2016-Jul-15 19:33N 29°53' E 122°03'0 0.1
2016-Jul-15 18:33N 29°53' E 122°03'1 1.1
2016-Jul-15 17:33N 29°54' E 122°04'9 9.2
2016-Jul-15 16:33N 29°50' E 122°13'9 8.5
2016-Jul-15 15:32N 29°44' E 122°21'  

Dump ship's entire track history